Terminal Aerodrome Forecast
Issued by NWS Jackson, MS

Home | Current Version | Previous Version | Text Only | Print | Product List | Glossary On
Versions: 1 2 3 4 5 6 7 8 9 10 11 12 13 14 15
000
FTUS44 KMEG 220530
TAFTUP
TAF
KTUP 220530Z 2206/2306 14009KT P6SM FEW060 BKN150
     FM221400 15012G18KT P6SM VCSH BKN040 OVC070
     FM221700 17010KT 6SM -SHRA BR VCTS BKN020CB
     FM222200 29007KT 6SM -SHRA BR BKN025
     FM230300 33005KT P6SM VCSH BKN015=

USA.gov is the U.S. government's official web portal to all federal, state and local government web resources and services.